Flight Briefing for CPX211

Departure Arrival
Benito Juárez International Airport (MMMX)
Click to view FAA NOTAMS
Miami International Airport (KMIA)
Click to view FAA NOTAMS
Departure Time Arrival Time
1130 UTC 1430 UTC
Aircraft Distance
B767-300BDSF 1145nm
Departure METAR Arrival METAR
MMMX 271145Z 06004KT 6SM FEW220 14/09 A3030 NOSIG RMK SLP070 52003 957 8/005 HZY KMIA 271153Z 06007KT 10SM FEW025 27/20 A3007 RMK AO2 SLP182 T02720200 10272 20261 53011
Suggested Route
CCUDA M580 NATLE CYY SSCOT5


View recent IFR Routes data
Notes



Charts and Procedures

Charts for MMMX
No chart available
Charts for KMIA
No chart available

Windy.com Weather Map